WetterOnline ( https://www.wetteronline.de )

Wetter aktuell Kaufungen

Aktuelles Wetter: Warburg (237m)

6-stündlich | Neueste Meldungen
Ortszeit Temperatur Wetter
Mo, 25.10. 20:00 9.1° C bewölkt
Mo, 25.10. 14:00 10.6° C wolkig
Mo, 25.10. 8:00 0.9° C wolkig
Mo, 25.10. 2:00 3.3° C wolkenlos
So, 24.10. 20:00 8.2° C wolkenlos
So, 24.10. 14:00 10.7° C wolkenlos
So, 24.10. 8:00 -2.0° C Nebel
So, 24.10. 2:00 -0.5° C wolkig
Ortszeit Temperatur Wetter
Mo, 25.10. 22:30 8.9° C leichter Regen
Mo, 25.10. 22:20 8.9° C leichter Regen
Mo, 25.10. 22:10 9.0° C bedeckt
Mo, 25.10. 22:00 8.9° C bewölkt
Mo, 25.10. 21:50 8.9° C bewölkt
Mo, 25.10. 21:40 9.0° C bewölkt
Mo, 25.10. 21:30 8.9° C bewölkt
Mo, 25.10. 21:00 8.8° C bewölkt
Mo, 25.10. 20:30 8.9° C bewölkt
Mo, 25.10. 20:00 9.1° C bewölkt
Mo, 25.10. 19:30 9.6° C wolkig
Ortszeit Relative Feuchte Sichtweite
Mo, 25.10. 20:00 78% 40 km
Mo, 25.10. 14:00 67% 50 km
Mo, 25.10. 8:00 94% 19 km
Mo, 25.10. 2:00 85% 55 km
So, 24.10. 20:00 70% 55 km
So, 24.10. 14:00 59% 65 km
So, 24.10. 8:00 99% 0.4 km
So, 24.10. 2:00 98% 6 km
Ortszeit Relative Feuchte Sichtweite
Mo, 25.10. 22:30 80% 27 km
Mo, 25.10. 22:20 80% -
Mo, 25.10. 22:10 79% -
Mo, 25.10. 22:00 79% 30 km
Mo, 25.10. 21:50 79% -
Mo, 25.10. 21:40 79% -
Mo, 25.10. 21:30 79% 29 km
Mo, 25.10. 21:00 81% 30 km
Mo, 25.10. 20:30 80% 35 km
Mo, 25.10. 20:00 78% 40 km
Mo, 25.10. 19:30 76% 40 km
Ortszeit Niederschlagsmenge Niederschlagsart
Mo, 25.10. 20:00 0.0 l/m2 in 12 Std. -
Mo, 25.10. 14:00 0.0 l/m2 in 6 Std. -
Mo, 25.10. 8:00 0.0 l/m2 in 12 Std. -
Mo, 25.10. 2:00 0.0 l/m2 in 6 Std. -
So, 24.10. 20:00 0.0 l/m2 in 12 Std. -
So, 24.10. 14:00 0.0 l/m2 in 6 Std. -
So, 24.10. 8:00 0.0 l/m2 in 12 Std. -
So, 24.10. 2:00 0.0 l/m2 in 6 Std. -
Ortszeit Niederschlagsmenge Niederschlagsart
Mo, 25.10. 22:30 0.1 l/m2 in 1 Std. -
Mo, 25.10. 22:20 keine Meldung -
Mo, 25.10. 22:10 keine Meldung -
Mo, 25.10. 22:00 0.1 l/m2 in 1 Std. Regen
Mo, 25.10. 21:50 keine Meldung -
Mo, 25.10. 21:40 keine Meldung -
Mo, 25.10. 21:30 0.0 l/m2 in 1 Std. -
Mo, 25.10. 21:00 0.0 l/m2 in 1 Std. -
Mo, 25.10. 20:30 0.0 l/m2 in 1 Std. -
Mo, 25.10. 20:00 0.0 l/m2 in 1 Std. -
Mo, 25.10. 19:30 0.0 l/m2 in 1 Std. -
Ortszeit Stärke Spitze Richtung
km/h Bft. km/h Grad Sektor
Mo, 25.10. 20:00 7 2 29 190° S
Mo, 25.10. 14:00 17 3 30 210° SW
Mo, 25.10. 8:00 4 1 22 200° S
Mo, 25.10. 2:00 7 2 13 140° SO
So, 24.10. 20:00 7 2 29 150° SO
So, 24.10. 14:00 14 3 25 160° S
So, 24.10. 8:00 0 0 7 - -
So, 24.10. 2:00 4 1 7 320° NW
Ortszeit Stärke Spitze Richtung
km/h Bft. km/h Grad Sektor
Mo, 25.10. 22:30 7 2 14 180° S
Mo, 25.10. 22:20 7 2 - 180° S
Mo, 25.10. 22:10 7 2 - 190° S
Mo, 25.10. 22:00 7 2 25 200° S
Mo, 25.10. 21:50 7 2 - 200° S
Mo, 25.10. 21:40 9 2 - 210° SW
Mo, 25.10. 21:30 9 2 24 200° S
Mo, 25.10. 21:00 7 2 20 210° SW
Mo, 25.10. 20:30 7 2 18 210° SW
Mo, 25.10. 20:00 7 2 18 190° S
Mo, 25.10. 19:30 7 2 18 200° S
Ortszeit Untergrenze Bedeckung Gattung
total tief tief mittel hoch
Mo, 25.10. 20:00 1290 m 7/8 7/8 - - -
Mo, 25.10. 14:00 5100 m 7/8 6/8 - - -
Mo, 25.10. 8:00 7200 m 8/8 0/8 - - -
Mo, 25.10. 2:00 - 0/8 0/8 - - -
So, 24.10. 20:00 - 0/8 0/8 - - -
So, 24.10. 14:00 - 0/8 0/8 - - -
So, 24.10. 8:00 <30 m 8/8 0/8 - - -
So, 24.10. 2:00 10500 m 8/8 0/8 - - -
Ortszeit Bedeckungsgrad in Achtel und Wolkenuntergrenze
Mo, 25.10. 22:30 7(1800m) 8(2400m)
Mo, 25.10. 22:20 7(1800m) 8(2400m)
Mo, 25.10. 22:10 1(1500m) 8(1800m) 8(2400m)
Mo, 25.10. 22:00 3(1500m) 4(1800m) 7(2400m)
Mo, 25.10. 21:50 3(1500m) 4(1800m) 7(2400m)
Mo, 25.10. 21:40 7(2400m)
Mo, 25.10. 21:30 7(2700m) 7(3900m) 8(3900m)
Mo, 25.10. 21:00 7(3000m) 7(6300m) 8(6300m)
Mo, 25.10. 20:30 7(3000m) 7(6600m)
Mo, 25.10. 20:00 3(1290m) 7(2700m) 7(6600m)
Mo, 25.10. 19:30 5(1290m) 6(2400m)
Ortszeit Luftdruck NN (hPa) Tendenz (hPa in 3 Std.)
Mo, 25.10. 20:00 1019 - 0,1
Mo, 25.10. 14:00 1020 - 1,0
Mo, 25.10. 8:00 1022 - 0,7
Mo, 25.10. 2:00 1023 - 0,7
So, 24.10. 20:00 1023 - 0,7
So, 24.10. 14:00 1026 - 1,6
So, 24.10. 8:00 1030 - 0,8
So, 24.10. 2:00 1031 0,0
Ortszeit Luftdruck NN (hPa) Tendenz (hPa in 3 Std.)
Mo, 25.10. 22:30 1019 + 0,1
Mo, 25.10. 22:20 1019 keine Meldung
Mo, 25.10. 22:10 1019 keine Meldung
Mo, 25.10. 22:00 1019 + 0,1
Mo, 25.10. 21:50 1019 keine Meldung
Mo, 25.10. 21:40 1019 keine Meldung
Mo, 25.10. 21:30 1019 - 0,1
Mo, 25.10. 21:00 1019 0,0
Mo, 25.10. 20:30 1019 - 0,2
Mo, 25.10. 20:00 1019 - 0,1
Mo, 25.10. 19:30 1019 - 0,2
Ortszeit Schneehöhe (cm)
Mo, 25.10. 20:00 0
Mo, 25.10. 14:00 0
Mo, 25.10. 8:00 0
Mo, 25.10. 2:00 0
So, 24.10. 20:00 0
So, 24.10. 14:00 0
So, 24.10. 8:00 0
So, 24.10. 2:00 0
Ortszeit Schneehöhe (cm)
Mo, 25.10. 22:30 0
Mo, 25.10. 22:20 0
Mo, 25.10. 22:10 0
Mo, 25.10. 22:00 0
Mo, 25.10. 21:50 0
Mo, 25.10. 21:40 0
Mo, 25.10. 21:30 0
Mo, 25.10. 21:00 0
Mo, 25.10. 20:30 0
Mo, 25.10. 20:00 0
Mo, 25.10. 19:30 0
Link zu dieser Seite / Seite empfehlen

Das Wetter in ...